LOWG/GRZ METAR and TAF weather

Enter ICAO airport designator
Station Type Date Time Source
LOWG METAR 2019/02/23 00:20 UTC NOAA

LOWG 230020Z AUTO 05017KT 9999 NSC 01/M12 Q1036


Station Type Date Time Source
LOWG Decoded METAR 2019/02/23 00:20 UTC NOAA

Graz-Thalerhof-Flughafen, Austria (LOWG) 47-00N 015-26E 347M
Feb 22, 2019 - 07:20 PM EST / 2019.02.23 0020 UTC
Wind: from the NE (050 degrees) at 20 MPH (17 KT):0
Visibility: greater than 7 mile(s):0
Temperature: 33 F (1 C)
Windchill: 21 F (-6 C):1
Dew Point: 10 F (-12 C)
Relative Humidity: 37%
Pressure (altimeter): 30.59 in. Hg (1036 hPa)
ob: LOWG 230020Z AUTO 05017KT 9999 NSC 01/M12 Q1036
cycle: 0

Station Type Date Time Source
LOWG TAF 2019/02/22 22:15 UTC NOAA

TAF TAF
AMD LOWG 222207Z 2222/2318 06005KT 9999 FEW060 SCT120 TX04/2222Z TNM05/2306Z
TEMPO 2310/2315 09008KT


Example: see airport list